Patterson, Virginia
Current Conditions -  °F | °C
As of 6:55 AM on Thursday 27 Nov 2014 (Local Time) from KJFZ Reporting Station
Light Snow Light Snow  
Wind Chill: 35°   Ceiling: 300
Heat Index: 35°   Visibility: 0.5mi
Dew Point: 33°   Wind: 0mph
Humidity: 94%   Direction: NA
Pressure: 29.98"   Gusts: NA
Location:  37.2148°N, 81.9825°W
Report Text: KJFZ 271155Z AUTO 00000KT 1/2SM -SN OVC003 01/01 A2998 RMK AO2 70024 T00140005 10035 20013
Loading
Personal Weather Stations






























Interactive Weather Map New forecast layout! Learn more

10-Day Weather Forecast

Advertisements
Track Severe Weather on mobile